createdAt,value
2023-01-08T00:01:30.177Z,100614.22
2023-01-08T00:03:56.947Z,100613.81
2023-01-08T00:06:25.314Z,100614.28
2023-01-08T00:08:52.112Z,100616.31
2023-01-08T00:11:19.097Z,100615.19
2023-01-08T00:13:45.803Z,100608.78
2023-01-08T00:16:17.649Z,100610.50
2023-01-08T00:18:46.411Z,100605.88
2023-01-08T00:21:13.708Z,100604.16
2023-01-08T00:23:40.698Z,100602.28
2023-01-08T00:26:09.857Z,100595.38
2023-01-08T00:28:37.944Z,100606.38
2023-01-08T00:31:06.490Z,100593.47
2023-01-08T00:33:34.270Z,100591.31
2023-01-08T00:36:06.313Z,100583.03
2023-01-08T00:38:33.077Z,100579.19
2023-01-08T00:40:59.850Z,100579.81
2023-01-08T00:43:26.727Z,100584.25
2023-01-08T00:45:53.953Z,100577.84
2023-01-08T00:48:25.099Z,100580.72
2023-01-08T00:50:53.052Z,100581.31
2023-01-08T00:53:20.979Z,100582.38
2023-01-08T00:55:48.308Z,100564.22
2023-01-08T00:58:15.403Z,100578.81
2023-01-08T01:00:42.314Z,100580.94
2023-01-08T01:03:09.085Z,100576.19
2023-01-08T01:05:36.049Z,100567.09
2023-01-08T01:08:02.796Z,100570.13
2023-01-08T01:10:29.643Z,100567.50
2023-01-08T01:12:56.422Z,100577.13
2023-01-08T01:15:23.246Z,100573.16
2023-01-08T01:17:50.040Z,100569.38
2023-01-08T01:20:17.586Z,100567.09
2023-01-08T01:22:44.476Z,100572.22
2023-01-08T01:25:11.535Z,100561.72
2023-01-08T01:27:38.532Z,100565.81
2023-01-08T01:30:06.311Z,100580.41
2023-01-08T01:32:33.580Z,100569.72
2023-01-08T01:35:00.727Z,100570.47
2023-01-08T01:37:28.020Z,100562.50
2023-01-08T01:39:56.255Z,100572.88
2023-01-08T01:42:41.384Z,100554.94
2023-01-08T01:45:15.944Z,100557.03
2023-01-08T01:47:47.060Z,100553.97
2023-01-08T01:50:20.299Z,100553.03
2023-01-08T01:52:56.370Z,100559.34
2023-01-08T01:55:23.443Z,100549.88
2023-01-08T01:58:01.696Z,100556.47
2023-01-08T02:00:29.191Z,100548.00
2023-01-08T02:02:56.956Z,100546.09
2023-01-08T02:05:27.648Z,100549.16
2023-01-08T02:08:07.403Z,100538.34
2023-01-08T02:11:05.420Z,100540.75
2023-01-08T02:13:36.782Z,100539.59
2023-01-08T02:16:26.709Z,100534.91
2023-01-08T02:19:25.747Z,100533.75
2023-01-08T02:21:59.476Z,100533.53
2023-01-08T02:24:43.160Z,100521.56
2023-01-08T02:27:10.213Z,100525.34
2023-01-08T02:29:37.322Z,100520.31
2023-01-08T02:32:04.988Z,100520.31
2023-01-08T02:34:32.735Z,100515.47
2023-01-08T02:37:00.803Z,100521.69
2023-01-08T02:39:42.756Z,100515.19
2023-01-08T02:42:11.531Z,100507.41
2023-01-08T02:45:03.110Z,100504.97
2023-01-08T02:47:39.483Z,100505.31
2023-01-08T02:50:26.072Z,100505.50
2023-01-08T02:52:55.944Z,100489.78
2023-01-08T02:55:24.966Z,100484.75
2023-01-08T02:57:53.336Z,100488.09
2023-01-08T03:00:20.986Z,100484.94
2023-01-08T03:02:51.400Z,100486.84
2023-01-08T03:05:25.487Z,100476.66
2023-01-08T03:07:53.837Z,100487.44
2023-01-08T03:10:24.649Z,100485.34
2023-01-08T03:13:00.175Z,100478.09
2023-01-08T03:15:42.215Z,100480.94
2023-01-08T03:18:13.245Z,100477.19
2023-01-08T03:20:40.969Z,100472.03
2023-01-08T03:23:11.346Z,100470.56
2023-01-08T03:25:42.264Z,100472.03
2023-01-08T03:28:19.368Z,100488.59
2023-01-08T03:30:47.639Z,100488.53
2023-01-08T03:33:16.705Z,100477.88
2023-01-08T03:35:48.001Z,100478.31
2023-01-08T03:38:24.682Z,100476.41
2023-01-08T03:41:05.624Z,100474.00
2023-01-08T03:43:32.585Z,100468.03
2023-01-08T03:46:03.487Z,100466.34
2023-01-08T03:48:33.430Z,100453.69
2023-01-08T03:51:00.420Z,100460.28
2023-01-08T03:53:28.238Z,100448.66
2023-01-08T03:55:56.830Z,100453.47
2023-01-08T03:58:23.530Z,100454.50
2023-01-08T04:00:50.316Z,100459.75
2023-01-08T04:03:17.158Z,100459.66
2023-01-08T04:05:43.937Z,100456.19
2023-01-08T04:08:10.752Z,100443.69
2023-01-08T04:10:37.661Z,100437.63
2023-01-08T04:13:04.438Z,100439.72
2023-01-08T04:15:31.292Z,100439.13
2023-01-08T04:17:58.023Z,100440.16
2023-01-08T04:20:24.772Z,100427.25
2023-01-08T04:22:51.548Z,100430.59
2023-01-08T04:25:19.365Z,100436.59
2023-01-08T04:27:46.221Z,100433.88
2023-01-08T04:30:13.242Z,100428.22
2023-01-08T04:32:40.032Z,100424.63
2023-01-08T04:35:06.981Z,100425.31
2023-01-08T04:37:33.964Z,100426.63
2023-01-08T04:40:00.772Z,100422.56
2023-01-08T04:42:27.538Z,100427.69
2023-01-08T04:44:54.258Z,100419.19
2023-01-08T04:47:21.088Z,100414.16
2023-01-08T04:49:47.843Z,100410.63
2023-01-08T04:52:14.649Z,100409.34
2023-01-08T04:54:41.403Z,100407.47
2023-01-08T04:57:08.174Z,100414.38
2023-01-08T04:59:35.004Z,100415.66
2023-01-08T05:02:02.052Z,100403.47
2023-01-08T05:04:29.057Z,100400.13
2023-01-08T05:06:55.874Z,100397.41
2023-01-08T05:09:22.816Z,100399.00
2023-01-08T05:11:49.593Z,100388.06
2023-01-08T05:14:16.538Z,100392.69
2023-01-08T05:16:43.415Z,100389.13
2023-01-08T05:19:10.240Z,100391.84
2023-01-08T05:21:37.146Z,100389.00
2023-01-08T05:24:04.161Z,100390.19
2023-01-08T05:26:31.085Z,100386.06
2023-01-08T05:28:58.121Z,100389.44
2023-01-08T05:31:25.275Z,100380.66
2023-01-08T05:33:52.485Z,100381.38
2023-01-08T05:36:19.214Z,100378.44
2023-01-08T05:38:46.253Z,100370.34
2023-01-08T05:41:13.039Z,100377.06
2023-01-08T05:43:39.848Z,100377.88
2023-01-08T05:46:06.916Z,100372.03
2023-01-08T05:48:35.289Z,100377.28
2023-01-08T05:51:02.521Z,100375.63
2023-01-08T05:53:29.312Z,100376.84
2023-01-08T05:56:14.268Z,100374.03
2023-01-08T05:58:41.145Z,100380.44
2023-01-08T06:01:15.885Z,100372.34
2023-01-08T06:03:42.773Z,100376.13
2023-01-08T06:06:11.133Z,100362.81
2023-01-08T06:08:38.425Z,100367.22
2023-01-08T06:11:08.165Z,100359.69
2023-01-08T06:13:37.999Z,100375.06
2023-01-08T06:16:05.532Z,100360.28
2023-01-08T06:18:32.631Z,100357.69
2023-01-08T06:20:59.491Z,100350.34
2023-01-08T06:23:26.388Z,100360.19
2023-01-08T06:25:56.983Z,100355.47
2023-01-08T06:28:24.097Z,100361.16
2023-01-08T06:30:51.039Z,100358.22
2023-01-08T06:33:20.929Z,100347.19
2023-01-08T06:35:47.807Z,100359.25
2023-01-08T06:38:14.511Z,100355.69
2023-01-08T06:40:41.321Z,100355.59
2023-01-08T06:43:08.045Z,100349.41
2023-01-08T06:45:34.849Z,100362.09
2023-01-08T06:48:06.744Z,100350.47
2023-01-08T06:50:34.843Z,100361.66
2023-01-08T06:53:01.622Z,100360.19
2023-01-08T06:55:28.418Z,100367.22
2023-01-08T06:57:55.995Z,100365.03
2023-01-08T07:00:26.440Z,100360.81
2023-01-08T07:02:54.483Z,100361.56
2023-01-08T07:05:22.053Z,100364.09
2023-01-08T07:07:49.187Z,100363.31
2023-01-08T07:10:17.991Z,100351.91
2023-01-08T07:12:45.875Z,100352.53
2023-01-08T07:15:12.637Z,100349.13
2023-01-08T07:17:39.381Z,100351.75
2023-01-08T07:20:06.875Z,100360.88
2023-01-08T07:22:33.725Z,100355.09
2023-01-08T07:25:00.553Z,100352.66
2023-01-08T07:27:27.597Z,100348.63
2023-01-08T07:29:56.057Z,100348.94
2023-01-08T07:32:23.137Z,100349.91
2023-01-08T07:34:49.931Z,100351.72
2023-01-08T07:37:16.776Z,100345.06
2023-01-08T07:39:43.545Z,100340.00
2023-01-08T07:42:10.269Z,100335.38
2023-01-08T07:44:37.068Z,100342.47
2023-01-08T07:47:03.872Z,100335.78
2023-01-08T07:49:30.587Z,100342.50
2023-01-08T07:51:57.312Z,100330.81
2023-01-08T07:54:24.031Z,100330.84
2023-01-08T07:56:50.691Z,100328.84
2023-01-08T07:59:17.374Z,100332.06
2023-01-08T08:01:44.248Z,100328.50
2023-01-08T08:04:11.079Z,100321.81
2023-01-08T08:06:37.843Z,100313.47
2023-01-08T08:09:04.588Z,100322.31
2023-01-08T08:11:31.324Z,100313.00
2023-01-08T08:13:58.113Z,100308.34
2023-01-08T08:16:24.940Z,100305.34
2023-01-08T08:18:51.776Z,100309.53
2023-01-08T08:21:18.552Z,100306.78
2023-01-08T08:23:45.301Z,100294.97
2023-01-08T08:26:12.125Z,100290.88
2023-01-08T08:28:38.871Z,100281.53
2023-01-08T08:31:05.958Z,100283.34
2023-01-08T08:33:32.810Z,100285.25
2023-01-08T08:35:59.553Z,100274.09
2023-01-08T08:38:26.545Z,100276.00
2023-01-08T08:40:53.535Z,100281.63
2023-01-08T08:43:20.312Z,100275.25
2023-01-08T08:45:47.079Z,100281.78
2023-01-08T08:48:16.062Z,100277.44
2023-01-08T08:50:43.210Z,100275.00
2023-01-08T08:53:10.484Z,100267.31
2023-01-08T08:55:37.275Z,100266.09
2023-01-08T08:58:10.944Z,100259.34
2023-01-08T09:00:42.667Z,100247.22
2023-01-08T09:03:14.854Z,100253.13
2023-01-08T09:05:43.266Z,100253.03
2023-01-08T09:08:10.999Z,100243.25
2023-01-08T09:10:40.079Z,100241.06
2023-01-08T09:13:06.905Z,100240.41
2023-01-08T09:15:33.653Z,100239.47
2023-01-08T09:18:00.430Z,100243.41
2023-01-08T09:20:28.602Z,100225.38
2023-01-08T09:22:59.114Z,100236.53
2023-01-08T09:25:25.925Z,100232.38
2023-01-08T09:28:12.328Z,100231.41
2023-01-08T09:30:40.242Z,100232.53
2023-01-08T09:33:07.074Z,100228.13
2023-01-08T09:35:34.106Z,100211.00
2023-01-08T09:38:00.947Z,100208.09
2023-01-08T09:40:47.766Z,100189.44
2023-01-08T09:43:21.058Z,100180.63
2023-01-08T09:45:52.491Z,100169.31
2023-01-08T09:48:23.891Z,100168.34
2023-01-08T09:50:50.893Z,100165.28
2023-01-08T09:53:19.068Z,100157.75
2023-01-08T09:56:08.700Z,100155.47
2023-01-08T09:58:44.752Z,100151.09
2023-01-08T10:01:14.456Z,100142.53
2023-01-08T10:04:06.691Z,100135.28
2023-01-08T10:06:33.792Z,100123.91
2023-01-08T10:09:00.782Z,100125.25
2023-01-08T10:11:42.446Z,100118.44
2023-01-08T10:14:25.043Z,100107.00
2023-01-08T10:17:00.871Z,100103.03
2023-01-08T10:19:27.681Z,100105.19
2023-01-08T10:21:56.188Z,100090.91
2023-01-08T10:24:37.961Z,100097.72
2023-01-08T10:27:10.228Z,100090.41
2023-01-08T10:29:39.818Z,100084.09
2023-01-08T10:32:39.836Z,100094.91
2023-01-08T10:35:07.971Z,100083.06
2023-01-08T10:37:43.228Z,100085.50
2023-01-08T10:40:31.723Z,100081.06
2023-01-08T10:43:07.657Z,100072.09
2023-01-08T10:45:34.711Z,100073.28
2023-01-08T10:48:06.021Z,100072.97
2023-01-08T10:50:34.612Z,100068.31
2023-01-08T10:53:04.169Z,100075.09
2023-01-08T10:55:37.745Z,100071.13
2023-01-08T10:58:14.663Z,100073.47
2023-01-08T11:00:42.138Z,100069.47
2023-01-08T11:03:24.832Z,100066.47
2023-01-08T11:05:51.884Z,100067.09
2023-01-08T11:08:23.205Z,100057.28
2023-01-08T11:10:58.775Z,100048.06
2023-01-08T11:13:26.523Z,100046.91
2023-01-08T11:16:08.658Z,100041.50
2023-01-08T11:18:45.422Z,100043.13
2023-01-08T11:21:28.494Z,100028.59
2023-01-08T11:24:23.998Z,100024.31
2023-01-08T11:26:59.012Z,100019.66
2023-01-08T11:29:47.398Z,100020.41
2023-01-08T11:32:48.465Z,100011.63
2023-01-08T11:35:29.372Z,100007.06
2023-01-08T11:38:01.861Z,99992.19
2023-01-08T11:40:51.782Z,99993.66
2023-01-08T11:43:21.700Z,99985.84
2023-01-08T11:46:12.785Z,99990.59
2023-01-08T11:48:54.857Z,99996.75
2023-01-08T11:51:36.980Z,99994.97
2023-01-08T11:54:14.562Z,99983.81
2023-01-08T11:57:16.905Z,99982.19
2023-01-08T12:00:02.828Z,99983.88
2023-01-08T12:03:08.425Z,99970.50
2023-01-08T12:05:50.050Z,99973.22
2023-01-08T12:08:35.327Z,99965.72
2023-01-08T12:11:23.950Z,99967.31
2023-01-08T12:13:50.700Z,99964.31
2023-01-08T12:16:35.650Z,99973.56
2023-01-08T12:19:14.476Z,99972.88
2023-01-08T12:21:59.678Z,99976.69
2023-01-08T12:24:44.689Z,99975.91
2023-01-08T12:27:59.839Z,99974.75
2023-01-08T12:30:41.964Z,99965.03
2023-01-08T12:33:36.075Z,99964.34
2023-01-08T12:36:09.377Z,99953.34
2023-01-08T12:38:40.299Z,99959.50
2023-01-08T12:41:17.715Z,99954.44
2023-01-08T12:44:17.115Z,99953.34
2023-01-08T12:46:48.427Z,99951.50
2023-01-08T12:49:24.970Z,99945.72
2023-01-08T12:52:18.076Z,99952.63
2023-01-08T12:54:56.645Z,99953.34
2023-01-08T12:57:38.948Z,99941.50
2023-01-08T13:00:36.335Z,99947.75
2023-01-08T13:03:06.395Z,99945.16
2023-01-08T13:05:37.822Z,99939.66
2023-01-08T13:08:08.224Z,99947.66
2023-01-08T13:10:37.084Z,99934.41
2023-01-08T13:13:04.934Z,99931.16
2023-01-08T13:15:33.084Z,99922.47
2023-01-08T13:18:16.427Z,99923.19
2023-01-08T13:20:43.785Z,99925.78
2023-01-08T13:23:24.798Z,99919.31
2023-01-08T13:25:53.503Z,99920.41
2023-01-08T13:28:35.333Z,99928.78
2023-01-08T13:31:25.856Z,99922.88
2023-01-08T13:33:53.352Z,99912.75
2023-01-08T13:36:27.155Z,99911.41
2023-01-08T13:39:05.277Z,99912.00
2023-01-08T13:41:38.840Z,99923.66
2023-01-08T13:44:17.923Z,99914.97
2023-01-08T13:46:54.960Z,99921.09
2023-01-08T13:49:34.710Z,99923.34
2023-01-08T13:52:01.731Z,99911.91
2023-01-08T13:54:31.290Z,99908.13
2023-01-08T13:57:05.931Z,99908.75
2023-01-08T13:59:49.714Z,99915.50
2023-01-08T14:02:32.166Z,99908.69
2023-01-08T14:05:01.479Z,99918.88
2023-01-08T14:07:29.151Z,99920.53
2023-01-08T14:10:08.194Z,99925.63
2023-01-08T14:12:35.285Z,99923.19
2023-01-08T14:15:04.381Z,99932.44
2023-01-08T14:17:32.568Z,99940.13
2023-01-08T14:19:59.710Z,99941.81
2023-01-08T14:22:32.890Z,99954.50
2023-01-08T14:25:04.325Z,99945.16
2023-01-08T14:27:32.481Z,99938.53
2023-01-08T14:29:59.318Z,99946.19
2023-01-08T14:32:29.444Z,99938.75
2023-01-08T14:34:59.853Z,99947.41
2023-01-08T14:37:26.789Z,99948.97
2023-01-08T14:39:54.924Z,99938.09
2023-01-08T14:42:42.508Z,99942.16
2023-01-08T14:45:21.519Z,99953.13
2023-01-08T14:47:51.496Z,99950.00
2023-01-08T14:50:24.721Z,99955.22
2023-01-08T14:52:55.069Z,99955.97
2023-01-08T14:55:22.669Z,99953.19
2023-01-08T14:57:53.378Z,99957.50
2023-01-08T15:00:27.171Z,99954.00
2023-01-08T15:02:54.339Z,99957.84
2023-01-08T15:05:28.063Z,99967.56
2023-01-08T15:08:01.000Z,99972.03
2023-01-08T15:10:43.270Z,99974.78
2023-01-08T15:13:25.488Z,99965.25
2023-01-08T15:16:10.957Z,99963.88
2023-01-08T15:18:44.784Z,99959.63
2023-01-08T15:21:17.839Z,99974.28
2023-01-08T15:23:48.849Z,99965.38
2023-01-08T15:26:16.588Z,99968.53
2023-01-08T15:29:00.814Z,99966.44
2023-01-08T15:31:30.750Z,99963.75
2023-01-08T15:33:58.085Z,99975.50
2023-01-08T15:36:25.289Z,99975.81
2023-01-08T15:38:52.419Z,99972.34
2023-01-08T15:41:42.564Z,99969.53
2023-01-08T15:44:12.975Z,99976.53
2023-01-08T15:46:39.805Z,99975.34
2023-01-08T15:49:06.564Z,99979.81
2023-01-08T15:51:34.866Z,99969.84
2023-01-08T15:54:02.468Z,99966.19
2023-01-08T15:56:29.379Z,99972.88
2023-01-08T15:58:56.210Z,99967.84
2023-01-08T16:01:23.087Z,99969.50
2023-01-08T16:03:50.121Z,99971.16
2023-01-08T16:06:16.972Z,99970.16
2023-01-08T16:08:46.184Z,99967.25
2023-01-08T16:11:18.061Z,99970.75
2023-01-08T16:13:45.542Z,99972.97
2023-01-08T16:16:14.644Z,99971.25
2023-01-08T16:18:41.802Z,99975.63
2023-01-08T16:21:10.114Z,99969.47
2023-01-08T16:23:39.154Z,99970.97
2023-01-08T16:26:15.769Z,99974.66
2023-01-08T16:28:42.789Z,99982.97
2023-01-08T16:31:10.186Z,99980.66
2023-01-08T16:33:38.036Z,99968.47
2023-01-08T16:36:08.010Z,99961.53
2023-01-08T16:38:35.155Z,99964.53
2023-01-08T16:41:02.042Z,99974.97
2023-01-08T16:43:30.624Z,99981.81
2023-01-08T16:46:03.247Z,99974.81
2023-01-08T16:48:30.881Z,99971.00
2023-01-08T16:51:04.919Z,99976.47
2023-01-08T16:53:32.197Z,99982.94
2023-01-08T16:56:00.200Z,99986.59
2023-01-08T16:58:27.227Z,99978.81
2023-01-08T17:00:54.041Z,99970.47
2023-01-08T17:03:21.059Z,99969.31
2023-01-08T17:05:48.366Z,99978.28
2023-01-08T17:08:16.933Z,99971.66
2023-01-08T17:10:44.268Z,99978.63
2023-01-08T17:13:11.151Z,99977.31
2023-01-08T17:15:38.565Z,99976.00
2023-01-08T17:18:05.650Z,99976.50
2023-01-08T17:20:32.552Z,99978.19
2023-01-08T17:23:01.457Z,99984.09
2023-01-08T17:25:28.349Z,99984.13
2023-01-08T17:27:55.214Z,99982.16
2023-01-08T17:30:22.123Z,99986.97
2023-01-08T17:32:48.898Z,99988.97
2023-01-08T17:35:15.783Z,99989.16
2023-01-08T17:37:42.582Z,99989.97
2023-01-08T17:40:10.052Z,99989.16
2023-01-08T17:42:36.911Z,99987.16
2023-01-08T17:45:05.730Z,99983.50
2023-01-08T17:47:32.632Z,99977.19
2023-01-08T17:50:02.115Z,99974.53
2023-01-08T17:52:29.045Z,99980.19
2023-01-08T17:54:55.778Z,99982.84
2023-01-08T17:57:23.085Z,99985.19
2023-01-08T17:59:50.400Z,99992.31
2023-01-08T18:02:17.718Z,99998.63
2023-01-08T18:04:45.723Z,99999.81
2023-01-08T18:07:12.778Z,100000.97
2023-01-08T18:09:39.599Z,99996.47
2023-01-08T18:12:07.070Z,99999.63
2023-01-08T18:14:36.197Z,100008.25
2023-01-08T18:17:03.305Z,100007.25
2023-01-08T18:19:30.054Z,100001.47
2023-01-08T18:21:56.923Z,100005.78
2023-01-08T18:24:23.621Z,100004.78
2023-01-08T18:26:50.509Z,100009.09
2023-01-08T18:29:17.304Z,100003.13
2023-01-08T18:31:46.158Z,100012.56
2023-01-08T18:34:15.076Z,100003.13
2023-01-08T18:36:42.083Z,100005.78
2023-01-08T18:39:09.035Z,99999.47
2023-01-08T18:41:54.338Z,100007.28
2023-01-08T18:44:21.253Z,100006.78
2023-01-08T18:46:48.299Z,100014.75
2023-01-08T18:49:15.989Z,100012.75
2023-01-08T18:51:43.343Z,100011.13
2023-01-08T18:54:11.592Z,100005.13
2023-01-08T18:56:38.440Z,100008.78
2023-01-08T18:59:06.628Z,99997.34
2023-01-08T19:01:35.290Z,99998.84
2023-01-08T19:04:02.516Z,99995.19
2023-01-08T19:06:29.288Z,99991.22
2023-01-08T19:08:58.377Z,99983.72
2023-01-08T19:11:25.908Z,99977.78
2023-01-08T19:13:57.475Z,99984.41
2023-01-08T19:16:24.969Z,99976.63
2023-01-08T19:18:51.702Z,99976.09
2023-01-08T19:21:19.613Z,99971.63
2023-01-08T19:23:47.604Z,99965.81
2023-01-08T19:26:14.678Z,99966.81
2023-01-08T19:28:42.843Z,99963.81
2023-01-08T19:31:16.262Z,99966.81
2023-01-08T19:33:44.775Z,99975.41
2023-01-08T19:36:14.235Z,99966.97
2023-01-08T19:38:42.062Z,99968.94
2023-01-08T19:41:29.924Z,99971.59
2023-01-08T19:43:57.479Z,99971.78
2023-01-08T19:46:24.509Z,99967.28
2023-01-08T19:48:51.620Z,99961.66
2023-01-08T19:51:18.681Z,99962.47
2023-01-08T19:53:45.554Z,99957.31
2023-01-08T19:56:13.860Z,99957.31
2023-01-08T19:58:41.480Z,99953.19
2023-01-08T20:01:22.871Z,99957.50
2023-01-08T20:03:50.229Z,99954.50
2023-01-08T20:06:20.637Z,99949.53
2023-01-08T20:08:48.551Z,99951.34
2023-01-08T20:11:17.226Z,99950.00
2023-01-08T20:13:44.391Z,99957.78
2023-01-08T20:16:17.370Z,99950.66
2023-01-08T20:18:44.671Z,99953.63
2023-01-08T20:21:21.802Z,99942.66
2023-01-08T20:23:49.126Z,99939.94
2023-01-08T20:26:18.443Z,99942.94
2023-01-08T20:28:46.532Z,99945.25
2023-01-08T20:31:16.279Z,99945.22
2023-01-08T20:33:44.127Z,99942.38
2023-01-08T20:36:18.143Z,99946.03
2023-01-08T20:38:45.577Z,99933.53
2023-01-08T20:41:12.879Z,99933.03
2023-01-08T20:43:40.954Z,99931.44
2023-01-08T20:46:13.882Z,99925.75
2023-01-08T20:48:47.709Z,99918.44
2023-01-08T20:51:15.912Z,99911.13
2023-01-08T20:53:42.714Z,99913.28
2023-01-08T20:56:14.852Z,99911.94
2023-01-08T20:58:46.259Z,99912.66
2023-01-08T21:01:22.246Z,99904.69
2023-01-08T21:03:51.303Z,99905.31
2023-01-08T21:06:20.923Z,99891.84
2023-01-08T21:08:50.046Z,99890.03
2023-01-08T21:11:17.853Z,99890.03
2023-01-08T21:13:45.290Z,99886.34
2023-01-08T21:16:24.665Z,99876.56
2023-01-08T21:18:54.083Z,99874.63
2023-01-08T21:21:28.765Z,99865.13
2023-01-08T21:23:56.736Z,99866.81
2023-01-08T21:26:24.100Z,99852.56
2023-01-08T21:28:51.168Z,99858.81
2023-01-08T21:31:20.733Z,99848.56
2023-01-08T21:33:49.343Z,99841.75
2023-01-08T21:36:19.160Z,99849.91
2023-01-08T21:38:46.439Z,99847.59
2023-01-08T21:41:35.824Z,99840.94
2023-01-08T21:44:23.672Z,99846.19
2023-01-08T21:46:50.754Z,99843.25
2023-01-08T21:49:17.556Z,99839.41
2023-01-08T21:52:02.789Z,99849.91
2023-01-08T21:54:29.645Z,99843.47
2023-01-08T21:56:56.568Z,99849.84
2023-01-08T21:59:23.317Z,99843.53
2023-01-08T22:01:50.146Z,99835.56
2023-01-08T22:04:16.894Z,99833.84
2023-01-08T22:06:43.712Z,99835.75
2023-01-08T22:09:10.509Z,99826.13
2023-01-08T22:11:37.231Z,99816.66
2023-01-08T22:14:04.056Z,99818.00
2023-01-08T22:16:30.867Z,99812.66
2023-01-08T22:18:57.707Z,99810.34
2023-01-08T22:21:24.632Z,99805.50
2023-01-08T22:23:51.833Z,99801.19
2023-01-08T22:26:20.273Z,99797.66
2023-01-08T22:28:47.120Z,99796.41
2023-01-08T22:31:15.413Z,99793.63
2023-01-08T22:33:42.884Z,99797.41
2023-01-08T22:36:12.972Z,99784.47
2023-01-08T22:38:40.048Z,99788.53
2023-01-08T22:41:16.027Z,99781.13
2023-01-08T22:43:43.065Z,99785.94
2023-01-08T22:46:12.884Z,99779.16
2023-01-08T22:48:39.855Z,99778.16
2023-01-08T22:51:06.907Z,99772.13
2023-01-08T22:53:33.821Z,99771.66
2023-01-08T22:56:00.621Z,99765.88
2023-01-08T22:58:28.227Z,99760.03
2023-01-08T23:00:55.059Z,99764.44
2023-01-08T23:03:21.808Z,99759.50
2023-01-08T23:05:48.559Z,99757.31
2023-01-08T23:08:15.354Z,99755.47
2023-01-08T23:10:42.249Z,99760.72
2023-01-08T23:13:09.023Z,99755.28
2023-01-08T23:15:35.752Z,99757.78
2023-01-08T23:18:02.460Z,99749.81
2023-01-08T23:20:29.215Z,99753.44
2023-01-08T23:22:56.012Z,99745.53
2023-01-08T23:25:22.853Z,99741.53
2023-01-08T23:27:49.685Z,99737.81
2023-01-08T23:30:16.722Z,99741.00
2023-01-08T23:32:43.559Z,99754.63
2023-01-08T23:35:10.309Z,99755.63
2023-01-08T23:37:37.054Z,99740.66
2023-01-08T23:40:04.139Z,99738.09
2023-01-08T23:42:30.923Z,99739.59
2023-01-08T23:44:57.742Z,99733.47
2023-01-08T23:47:24.471Z,99732.84
2023-01-08T23:49:51.387Z,99729.81
2023-01-08T23:52:18.160Z,99719.66
2023-01-08T23:54:44.964Z,99730.63
2023-01-08T23:57:11.776Z,99720.50
2023-01-08T23:59:38.627Z,99726.81
